Waurika, Oklahoma
Current Conditions -  °F | °C
As of 8:55 PM on Wednesday 22 Oct 2014 (Local Time) from KDUC Reporting Station
Light Rain Light Rain  
Wind Chill: 64°   Ceiling: 8500
Heat Index: 64°   Visibility: 7mi
Dew Point: 64°   Wind: 0mph
Humidity: 100%   Direction: NA
Pressure: 30.11"   Gusts: NA
Location:  34.17°N, 98°W
Report Text: KDUC 230155Z AUTO 00000KT 7SM -RA BKN085 BKN120 18/18 A3011 RMK AO2
Loading
Personal Weather Stations






























Interactive Weather Map
Tropical Storm Tracking
New forecast layout! Learn more

10-Day Weather Forecast

Advertisements
Track Severe Weather on mobile